Macon, GA

4:03 AM EDT on July 03, 2015 (GMT -0400)
Pierce Ave (Hwy 247) | | Change Station
CLOSE
Current Station
Personal Weather Station
Location: Macon, GA
Elevation: 375 ft
Nearby Weather Stations

Elev 375 ft 32.86 °N, 83.66 °W | Updated 2 minutes ago

Overcast
Overcast
75.3 °F
Feels Like 74 °F
N
0.0
Wind Variable Wind from NW
Gusts 2.0 mph

Today
High -- | Low -- °F
--% Chance of Precip.
Yesterday
High -- | Low -- °F
Precip. -- in
6:30 AM 8:46 PM
Full, 98% visible
Pressure 29.97 in
Visibility 9.0 miles
Clouds Mostly Cloudy 800 ft
Overcast 1300 ft
Heat Index 74 °F
Dew Point 74 °F
Humidity 95%
Rainfall 0.00 in
Snow Depth Not available.
UV 0 out of 12
Pollen 2.00 out of 12
Air Quality Not available.
Flu Activity Not available.
METAR KMCN 030753Z AUTO 18007KT 9SM BKN008 OVC013 23/22 A2998 RMK AO2 SLP147 T02330222 TSNO $

More Conditions Fewer Conditions

Pressure 29.97 in
Visibility 9.0 miles
Clouds Mostly Cloudy 800 ft
Overcast 1300 ft
Heat Index 74 °F
Dew Point 74 °F
Humidity 95%
Rainfall 0.00 in
Snow Depth Not available.
UV 0 out of 12
Pollen 2.00 out of 12
Air Quality Not available.
Flu Activity Not available.
METAR KMCN 030753Z AUTO 18007KT 9SM BKN008 OVC013 23/22 A2998 RMK AO2 SLP147 T02330222 TSNO $

More Conditions Fewer Conditions

10-Day Weather Forecast

×

Almanac

Astronomy

Jul. 03, 2015 Rise Set
Actual Time
Civil Twilight
Nautical Twilight
Astronomical Twilight
Moon
Length of Visible Light
Length of Day
Tomorrow will be .
, % of the Moon is Illuminated

Today's Extremes

State Highs State Lows

Community

WunderPhotos

Upload Photos

1,834,634 photos uploaded!

WunderBlogs® & News

Nearby

Air Quality

  Air Quality AQ Index Pollutant
Not available.

Snow Depth

Station Depth Elevation

Earthquake Activity

City Distance Mag. Time & Date
Minimum magnitude displayed is 2.5.

Coastal Water Temperatures

Place Temperature

Stations

Nearby Weather Stations

Station Location Temp. Windchill Dew Point Humidity Wind Precip. Elev Updated Type